DIPPU EDTQ-EDFZ
Flight info
| Callsign | DIPPU |
|---|---|
| Flight time | 0h 26m |
| Altitude | 9500 |
| Route | VFR |
| Aircraft | AEST/L-S/S |
Departure
| Time | 2026-04-15 10:51 |
|---|---|
| Airport | Pattonville Airfield (EDTQ) |
Arrival
| Time | 2026-04-15 11:17 |
|---|---|
| Airport | Mainz-Finthen Airfield (EDFZ) |
| Time | Latitude | Longitude | Altitude | Speed | Heading |
|---|---|---|---|---|---|
| 2026-04-15 10:43 | 48.86492 | 9.22238 | 930 ft | 0 kts | 168° |
| 2026-04-15 10:48 | 48.86491 | 9.22238 | 930 ft | 2 kts | 168° |
| 2026-04-15 10:48 | 48.86470 | 9.22170 | 935 ft | 15 kts | 283° |
| 2026-04-15 10:48 | 48.86497 | 9.21977 | 933 ft | 20 kts | 282° |
| 2026-04-15 10:49 | 48.86535 | 9.21805 | 936 ft | 12 kts | 333° |
| 2026-04-15 10:49 | 48.86543 | 9.21790 | 935 ft | 3 kts | 250° |
| 2026-04-15 10:49 | 48.86526 | 9.21801 | 935 ft | 0 kts | 99° |
| 2026-04-15 10:50 | 48.86497 | 9.21987 | 933 ft | 60 kts | 103° |
| 2026-04-15 10:50 | 48.86349 | 9.22906 | 959 ft | 109 kts | 102° |
| 2026-04-15 10:51 | 48.86044 | 9.24070 | 1283 ft | 127 kts | 115° |
| 2026-04-15 10:51 | 48.85667 | 9.25302 | 1797 ft | 133 kts | 117° |
| 2026-04-15 10:51 | 48.85550 | 9.26704 | 2263 ft | 139 kts | 72° |
| 2026-04-15 10:51 | 48.86127 | 9.27829 | 2776 ft | 140 kts | 30° |
| 2026-04-15 10:52 | 48.87079 | 9.28055 | 3272 ft | 144 kts | 348° |
| 2026-04-15 10:52 | 48.87986 | 9.27297 | 3575 ft | 164 kts | 326° |
| 2026-04-15 10:52 | 48.88962 | 9.26183 | 3684 ft | 184 kts | 324° |
| 2026-04-15 10:52 | 48.90016 | 9.24966 | 3838 ft | 195 kts | 324° |
| 2026-04-15 10:53 | 48.91087 | 9.23722 | 4205 ft | 192 kts | 324° |
| 2026-04-15 10:53 | 48.92145 | 9.22493 | 4565 ft | 191 kts | 324° |
| 2026-04-15 10:53 | 48.93200 | 9.21266 | 4921 ft | 191 kts | 324° |
| 2026-04-15 10:53 | 48.94260 | 9.20032 | 5198 ft | 194 kts | 323° |
| 2026-04-15 10:54 | 48.95339 | 9.18786 | 5455 ft | 196 kts | 324° |
| 2026-04-15 10:54 | 48.96431 | 9.17535 | 5721 ft | 196 kts | 324° |
| 2026-04-15 10:54 | 48.97517 | 9.16300 | 6081 ft | 192 kts | 323° |
| 2026-04-15 10:54 | 48.98578 | 9.15099 | 6470 ft | 188 kts | 324° |
| 2026-04-15 10:55 | 48.99626 | 9.13927 | 6807 ft | 186 kts | 323° |
| 2026-04-15 10:55 | 49.00660 | 9.12780 | 7134 ft | 182 kts | 323° |
| 2026-04-15 10:55 | 49.01685 | 9.11645 | 7455 ft | 182 kts | 323° |
| 2026-04-15 10:55 | 49.02694 | 9.10528 | 7781 ft | 181 kts | 323° |
| 2026-04-15 10:56 | 49.03705 | 9.09409 | 8093 ft | 177 kts | 324° |
| 2026-04-15 10:56 | 49.04698 | 9.08307 | 8394 ft | 177 kts | 323° |
| 2026-04-15 10:56 | 49.05699 | 9.07203 | 8695 ft | 178 kts | 323° |
| 2026-04-15 10:56 | 49.06704 | 9.06098 | 9003 ft | 177 kts | 323° |
| 2026-04-15 10:57 | 49.07699 | 9.05002 | 9321 ft | 176 kts | 323° |
| 2026-04-15 10:57 | 49.09741 | 9.02774 | 9641 ft | 191 kts | 323° |
| 2026-04-15 10:57 | 49.10854 | 9.01557 | 9595 ft | 202 kts | 324° |
| 2026-04-15 10:58 | 49.12025 | 9.00290 | 9526 ft | 211 kts | 326° |
| 2026-04-15 10:58 | 49.13268 | 8.99054 | 9484 ft | 215 kts | 327° |
| 2026-04-15 10:58 | 49.14534 | 8.97813 | 9467 ft | 217 kts | 327° |
| 2026-04-15 10:58 | 49.15801 | 8.96564 | 9486 ft | 216 kts | 327° |
| 2026-04-15 10:59 | 49.17074 | 8.95315 | 9491 ft | 218 kts | 327° |
| 2026-04-15 10:59 | 49.18335 | 8.94076 | 9488 ft | 218 kts | 327° |
| 2026-04-15 10:59 | 49.19622 | 8.92820 | 9484 ft | 219 kts | 327° |
| 2026-04-15 10:59 | 49.20911 | 8.91570 | 9485 ft | 219 kts | 327° |
| 2026-04-15 11:00 | 49.22196 | 8.90318 | 9486 ft | 219 kts | 327° |
| 2026-04-15 11:00 | 49.23482 | 8.89063 | 9495 ft | 219 kts | 327° |
| 2026-04-15 11:00 | 49.24766 | 8.87816 | 9491 ft | 218 kts | 327° |
| 2026-04-15 11:00 | 49.26052 | 8.86565 | 9492 ft | 218 kts | 327° |
| 2026-04-15 11:01 | 49.27321 | 8.85338 | 9493 ft | 219 kts | 327° |
| 2026-04-15 11:01 | 49.28611 | 8.84097 | 9491 ft | 219 kts | 327° |
| 2026-04-15 11:01 | 49.29896 | 8.82853 | 9493 ft | 219 kts | 327° |
| 2026-04-15 11:01 | 49.31183 | 8.81612 | 9493 ft | 219 kts | 327° |
| 2026-04-15 11:02 | 49.32478 | 8.80371 | 9493 ft | 219 kts | 327° |
| 2026-04-15 11:02 | 49.33765 | 8.79125 | 9497 ft | 218 kts | 327° |
| 2026-04-15 11:02 | 49.35051 | 8.77883 | 9496 ft | 218 kts | 327° |
| 2026-04-15 11:02 | 49.36334 | 8.76636 | 9495 ft | 218 kts | 327° |
| 2026-04-15 11:03 | 49.37613 | 8.75383 | 9496 ft | 218 kts | 327° |
| 2026-04-15 11:03 | 49.38897 | 8.74135 | 9496 ft | 219 kts | 327° |
| 2026-04-15 11:03 | 49.40179 | 8.72892 | 9494 ft | 218 kts | 327° |
| 2026-04-15 11:03 | 49.41465 | 8.71646 | 9497 ft | 219 kts | 327° |
| 2026-04-15 11:04 | 49.42754 | 8.70400 | 9499 ft | 218 kts | 327° |
| 2026-04-15 11:04 | 49.44034 | 8.69151 | 9501 ft | 218 kts | 327° |
| 2026-04-15 11:04 | 49.45319 | 8.67897 | 9501 ft | 218 kts | 327° |
| 2026-04-15 11:04 | 49.46584 | 8.66660 | 9501 ft | 218 kts | 327° |
| 2026-04-15 11:05 | 49.47883 | 8.65389 | 9500 ft | 218 kts | 327° |
| 2026-04-15 11:05 | 49.49148 | 8.64152 | 9501 ft | 218 kts | 327° |
| 2026-04-15 11:05 | 49.50429 | 8.62898 | 9501 ft | 218 kts | 327° |
| 2026-04-15 11:05 | 49.51711 | 8.61644 | 9501 ft | 218 kts | 327° |
| 2026-04-15 11:06 | 49.52996 | 8.60386 | 9501 ft | 218 kts | 327° |
| 2026-04-15 11:06 | 49.54281 | 8.59127 | 9500 ft | 218 kts | 327° |
| 2026-04-15 11:06 | 49.55563 | 8.57872 | 9501 ft | 218 kts | 327° |
| 2026-04-15 11:06 | 49.56845 | 8.56616 | 9502 ft | 218 kts | 327° |
| 2026-04-15 11:07 | 49.58170 | 8.55318 | 9137 ft | 229 kts | 327° |
| 2026-04-15 11:07 | 49.59499 | 8.54016 | 8760 ft | 223 kts | 327° |
| 2026-04-15 11:07 | 49.60848 | 8.52691 | 7936 ft | 236 kts | 327° |
| 2026-04-15 11:07 | 49.62259 | 8.51298 | 7141 ft | 243 kts | 327° |
| 2026-04-15 11:08 | 49.63690 | 8.49882 | 6378 ft | 245 kts | 327° |
| 2026-04-15 11:08 | 49.65121 | 8.48437 | 5549 ft | 246 kts | 327° |
| 2026-04-15 11:08 | 49.66542 | 8.46958 | 4767 ft | 246 kts | 327° |
| 2026-04-15 11:08 | 49.67941 | 8.45482 | 4173 ft | 237 kts | 327° |
| 2026-04-15 11:09 | 49.69302 | 8.44041 | 3668 ft | 238 kts | 327° |
| 2026-04-15 11:09 | 49.70648 | 8.42568 | 3223 ft | 239 kts | 324° |
| 2026-04-15 11:09 | 49.71906 | 8.41033 | 3149 ft | 226 kts | 322° |
| 2026-04-15 11:09 | 49.73103 | 8.39481 | 3055 ft | 223 kts | 321° |
| 2026-04-15 11:10 | 49.74278 | 8.37936 | 3027 ft | 221 kts | 320° |
| 2026-04-15 11:10 | 49.75453 | 8.36391 | 2970 ft | 220 kts | 321° |
| 2026-04-15 11:10 | 49.76618 | 8.34843 | 2901 ft | 221 kts | 320° |
| 2026-04-15 11:10 | 49.77771 | 8.33261 | 2851 ft | 220 kts | 320° |
| 2026-04-15 11:11 | 49.78900 | 8.31711 | 2757 ft | 214 kts | 320° |
| 2026-04-15 11:11 | 49.79988 | 8.30220 | 2696 ft | 209 kts | 320° |
| 2026-04-15 11:11 | 49.81085 | 8.28727 | 2573 ft | 206 kts | 320° |
| 2026-04-15 11:11 | 49.82148 | 8.27257 | 2490 ft | 203 kts | 320° |
| 2026-04-15 11:12 | 49.83174 | 8.25849 | 2496 ft | 196 kts | 320° |
| 2026-04-15 11:12 | 49.84177 | 8.24471 | 2529 ft | 191 kts | 319° |
| 2026-04-15 11:12 | 49.85172 | 8.23107 | 2542 ft | 190 kts | 320° |
| 2026-04-15 11:12 | 49.86168 | 8.21737 | 2519 ft | 192 kts | 319° |
| 2026-04-15 11:13 | 49.87177 | 8.20332 | 2370 ft | 201 kts | 320° |
| 2026-04-15 11:13 | 49.88226 | 8.18885 | 2120 ft | 202 kts | 320° |
| 2026-04-15 11:13 | 49.89271 | 8.17436 | 1848 ft | 202 kts | 319° |
| 2026-04-15 11:13 | 49.90310 | 8.15976 | 1609 ft | 198 kts | 319° |
| 2026-04-15 11:14 | 49.91293 | 8.14642 | 1626 ft | 179 kts | 327° |
| 2026-04-15 11:14 | 49.92403 | 8.14094 | 1658 ft | 160 kts | 355° |
| 2026-04-15 11:14 | 49.93439 | 8.13934 | 1713 ft | 132 kts | 356° |
| 2026-04-15 11:14 | 49.94242 | 8.13766 | 1699 ft | 108 kts | 340° |
| 2026-04-15 11:15 | 49.94697 | 8.12925 | 1697 ft | 107 kts | 279° |
| 2026-04-15 11:15 | 49.94563 | 8.11808 | 1734 ft | 106 kts | 266° |
| 2026-04-15 11:15 | 49.94871 | 8.10776 | 1672 ft | 115 kts | 324° |
| 2026-04-15 11:15 | 49.95614 | 8.10454 | 1550 ft | 112 kts | 8° |
| 2026-04-15 11:16 | 49.96281 | 8.10965 | 1376 ft | 110 kts | 66° |
| 2026-04-15 11:16 | 49.96450 | 8.12090 | 1177 ft | 107 kts | 80° |
| 2026-04-15 11:16 | 49.96634 | 8.13192 | 938 ft | 100 kts | 76° |
| 2026-04-15 11:16 | 49.96813 | 8.14199 | 769 ft | 87 kts | 77° |
| 2026-04-15 11:17 | 49.96933 | 8.14885 | 750 ft | 52 kts | 75° |
| 2026-04-15 11:17 | 49.97006 | 8.15307 | 745 ft | 30 kts | 75° |
| 2026-04-15 11:17 | 49.97063 | 8.15357 | 742 ft | 11 kts | 319° |
| 2026-04-15 11:17 | 49.97067 | 8.15327 | 743 ft | 0 kts | 253° |
| 2026-04-15 11:18 | 49.97065 | 8.15312 | 743 ft | 6 kts | 259° |
| 2026-04-15 11:18 | 49.97119 | 8.15193 | 744 ft | 14 kts | 327° |
| 2026-04-15 11:18 | 49.97198 | 8.15105 | 745 ft | 14 kts | 314° |
| 2026-04-15 11:19 | 49.97179 | 8.15041 | 747 ft | 12 kts | 175° |
| 2026-04-15 11:19 | 49.97144 | 8.14955 | 748 ft | 10 kts | 266° |
| 2026-04-15 11:19 | 49.97140 | 8.14898 | 747 ft | 0 kts | 255° |